Time;durP1;ratioP1;P1;durP2;ratioP2;P2;SDS_P1;SDS_P2;PMS_P1;PMS_P2;Temp;Humidity;BMP_temperature;BMP_pressure;BME280_temperature;BME280_humidity;BME280_pressure;Samples;Min_cycle;Max_cycle;Signal;HPM_P1;HPM_P2
2023/04/14 00:01:36;;;;;;;;;;;6.10;99.90;;;;;;5035811;28;19921;-78
2023/04/14 00:04:02;;;;;;;;;;;6.10;99.90;;;;;;5017795;28;19923;-78
2023/04/14 00:06:27;;;;;;;;;;;5.90;99.90;;;;;;5018319;28;20027;-77
2023/04/14 00:08:53;;;;;;;;;;;5.70;99.90;;;;;;5016822;28;19964;-77
2023/04/14 00:11:18;;;;;;;;;;;5.70;99.90;;;;;;5017684;28;19967;-77
2023/04/14 00:13:44;;;;;;;;;;;5.60;99.90;;;;;;5018186;28;19963;-77
2023/04/14 00:16:11;;;;;;;;;;;5.50;99.90;;;;;;5020742;28;19920;-77
2023/04/14 00:18:37;;;;;;;;;;;5.50;99.90;;;;;;5014818;28;19920;-77
2023/04/14 00:21:02;;;;;;;;;;;5.30;99.90;;;;;;5019208;28;19959;-77
2023/04/14 00:23:28;;;;;;;;;;;5.40;99.90;;;;;;5017108;28;20007;-77
2023/04/14 00:25:53;;;;;;;;;;;5.40;99.90;;;;;;5035400;28;19947;-77
2023/04/14 00:28:19;;;;;;;;;;;5.40;99.90;;;;;;5012607;28;19924;-78
2023/04/14 00:30:45;;;;;;;;;;;5.40;99.90;;;;;;5009406;28;19928;-78
2023/04/14 00:33:10;;;;;;;;;;;5.50;99.90;;;;;;5030156;28;19921;-78
2023/04/14 00:35:36;;;;;;;;;;;5.50;99.90;;;;;;5015685;28;20019;-77
2023/04/14 00:38:02;;;;;;;;;;;5.50;99.90;;;;;;5014715;28;19994;-78
2023/04/14 00:40:28;;;;;;;;;;;5.40;99.90;;;;;;5015126;28;19971;-78
2023/04/14 00:42:54;;;;;;;;;;;5.30;99.90;;;;;;5027133;28;20440;-78
2023/04/14 00:45:19;;;;;;;;;;;5.20;99.90;;;;;;5013126;28;19923;-77
2023/04/14 00:47:46;;;;;;;;;;;5.30;99.90;;;;;;5012931;28;19920;-78
2023/04/14 00:50:16;;;;;;;;;;;5.30;99.90;;;;;;5017232;28;19927;-78
2023/04/14 00:52:43;;;;;;;;;;;5.20;99.90;;;;;;5017310;28;19935;-78
2023/04/14 00:55:09;;;;;;;;;;;5.30;99.90;;;;;;5035500;28;19917;-78
2023/04/14 00:57:35;;;;;;;;;;;5.20;99.90;;;;;;5014232;28;19999;-77
2023/04/14 01:00:03;;;;;;;;;;;5.10;99.90;;;;;;5032291;28;20425;-78
2023/04/14 01:02:29;;;;;;;;;;;5.10;99.90;;;;;;5018079;28;19924;-78
2023/04/14 01:04:55;;;;;;;;;;;5.30;99.90;;;;;;5030905;28;20320;-77
2023/04/14 01:07:21;;;;;;;;;;;5.30;99.90;;;;;;5013838;28;20381;-78
2023/04/14 01:09:47;;;;;;;;;;;5.30;99.90;;;;;;5013896;28;20310;-78
2023/04/14 01:12:22;;;;;;;;;;;5.30;99.90;;;;;;5015211;28;20459;-78
2023/04/14 01:15:06;;;;;;;;;;;5.30;99.90;;;;;;5036493;28;20383;-78
2023/04/14 01:17:43;;;;;;;;;;;5.40;99.90;;;;;;5016417;28;19935;-77
2023/04/14 01:20:21;;;;;;;;;;;5.40;99.90;;;;;;5018639;28;20365;-78
2023/04/14 01:22:48;;;;;;;;;;;5.30;99.90;;;;;;5017279;28;19921;-78
2023/04/14 01:25:53;;;;;;;;;;;5.40;99.90;;;;;;5027901;28;19946;-78
2023/04/14 01:28:42;;;;;;;;;;;5.50;99.90;;;;;;4987317;28;19921;-78
2023/04/14 01:31:17;;;;;;;;;;;5.60;99.90;;;;;;4978956;28;20034;-77
2023/04/14 01:33:45;;;;;;;;;;;5.60;99.90;;;;;;5016884;28;19925;-78
2023/04/14 01:36:30;;;;;;;;;;;5.80;99.90;;;;;;5032626;28;19982;-77
2023/04/14 01:38:56;;;;;;;;;;;5.80;99.90;;;;;;5017510;28;19920;-77
2023/04/14 01:41:23;;;;;;;;;;;5.70;99.90;;;;;;5018001;28;20493;-78
2023/04/14 01:43:52;;;;;;;;;;;5.70;99.90;;;;;;5033558;28;19925;-78
2023/04/14 01:46:18;;;;;;;;;;;5.70;99.90;;;;;;5017214;28;20319;-78
2023/04/14 01:48:44;;;;;;;;;;;5.60;99.90;;;;;;5015506;28;19935;-77
2023/04/14 01:51:11;;;;;;;;;;;5.60;99.90;;;;;;5018302;28;19943;-78
2023/04/14 01:53:38;;;;;;;;;;;5.60;99.90;;;;;;5035269;28;20471;-78
2023/04/14 01:56:05;;;;;;;;;;;5.60;99.90;;;;;;5036005;28;19917;-78
2023/04/14 01:58:31;;;;;;;;;;;5.60;99.90;;;;;;5015030;28;19924;-78
2023/04/14 02:00:57;;;;;;;;;;;5.60;99.90;;;;;;5020252;28;20537;-78
2023/04/14 02:03:24;;;;;;;;;;;5.70;99.90;;;;;;5024153;28;19921;-78
2023/04/14 02:05:51;;;;;;;;;;;5.70;99.90;;;;;;5006150;28;19920;-78
2023/04/14 02:08:17;;;;;;;;;;;5.70;99.90;;;;;;5020319;28;19921;-78
2023/04/14 02:10:44;;;;;;;;;;;5.70;99.90;;;;;;5017422;28;20075;-78
2023/04/14 02:13:11;;;;;;;;;;;5.70;99.90;;;;;;5020217;28;20003;-78
2023/04/14 02:15:37;;;;;;;;;;;5.70;99.90;;;;;;5020423;28;19920;-78
2023/04/14 02:18:04;;;;;;;;;;;5.70;99.90;;;;;;5022282;28;20039;-78
2023/04/14 02:20:31;;;;;;;;;;;5.70;99.90;;;;;;5020134;28;19920;-78
2023/04/14 02:22:56;;;;;;;;;;;5.80;99.90;;;;;;5022335;28;19974;-78
2023/04/14 02:25:24;;;;;;;;;;;5.80;99.90;;;;;;5023651;28;19921;-78
2023/04/14 02:28:10;;;;;;;;;;;5.90;99.90;;;;;;5020287;28;19936;-78
2023/04/14 02:30:40;;;;;;;;;;;5.90;99.90;;;;;;5021597;28;20370;-78
2023/04/14 02:33:11;;;;;;;;;;;5.90;99.90;;;;;;5033866;28;19971;-78
2023/04/14 02:35:47;;;;;;;;;;;5.90;99.90;;;;;;5022293;28;20376;-78
2023/04/14 02:38:15;;;;;;;;;;;5.90;99.90;;;;;;5015003;28;20455;-78
2023/04/14 02:40:41;;;;;;;;;;;5.90;99.90;;;;;;5018093;28;19921;-78
2023/04/14 02:43:11;;;;;;;;;;;5.90;99.90;;;;;;5020096;28;19921;-78
2023/04/14 02:45:39;;;;;;;;;;;5.80;99.90;;;;;;5022751;28;19946;-78
2023/04/14 02:48:09;;;;;;;;;;;5.70;99.90;;;;;;5021202;28;19928;-78
2023/04/14 02:50:35;;;;;;;;;;;5.60;99.90;;;;;;5021521;28;19917;-78
2023/04/14 02:53:02;;;;;;;;;;;5.60;99.90;;;;;;5023237;28;19945;-78
2023/04/14 02:55:29;;;;;;;;;;;5.60;99.90;;;;;;5021894;28;19970;-78
2023/04/14 02:57:55;;;;;;;;;;;5.50;99.90;;;;;;5019143;28;19927;-78
2023/04/14 03:00:22;;;;;;;;;;;5.60;99.90;;;;;;5016333;28;19999;-78
2023/04/14 03:02:48;;;;;;;;;;;5.60;99.90;;;;;;5023210;28;19963;-78
2023/04/14 03:05:14;;;;;;;;;;;5.60;99.90;;;;;;5022353;28;20385;-77
2023/04/14 03:07:41;;;;;;;;;;;5.60;99.90;;;;;;5036057;28;19921;-78
2023/04/14 03:10:07;;;;;;;;;;;5.50;99.90;;;;;;5019273;28;19921;-78
2023/04/14 03:12:34;;;;;;;;;;;5.50;99.90;;;;;;5021731;28;19916;-77
2023/04/14 03:15:00;;;;;;;;;;;5.50;99.90;;;;;;5021572;28;19943;-78
2023/04/14 03:17:27;;;;;;;;;;;5.50;99.90;;;;;;5038547;28;19928;-78
2023/04/14 03:19:53;;;;;;;;;;;5.30;99.90;;;;;;5039822;28;19916;-78
2023/04/14 03:22:19;;;;;;;;;;;5.30;99.90;;;;;;5020840;28;19927;-78
2023/04/14 03:24:46;;;;;;;;;;;5.20;99.90;;;;;;5037249;28;19920;-77
2023/04/14 03:27:17;;;;;;;;;;;5.20;99.90;;;;;;5020716;28;19927;-78
2023/04/14 03:29:50;;;;;;;;;;;5.10;99.90;;;;;;5020461;28;19987;-78
2023/04/14 03:32:16;;;;;;;;;;;5.10;99.90;;;;;;5021760;28;19920;-78
2023/04/14 03:34:42;;;;;;;;;;;5.10;99.90;;;;;;5021440;28;19975;-78
2023/04/14 03:37:08;;;;;;;;;;;5.30;99.90;;;;;;5020108;28;19920;-78
2023/04/14 03:39:35;;;;;;;;;;;5.20;99.90;;;;;;5022074;28;19977;-78
2023/04/14 03:42:02;;;;;;;;;;;5.10;99.90;;;;;;5019207;28;20443;-78
2023/04/14 03:44:31;;;;;;;;;;;5.00;99.90;;;;;;5020051;28;19928;-78
2023/04/14 03:46:59;;;;;;;;;;;5.00;99.90;;;;;;5021370;28;19920;-78
2023/04/14 03:49:26;;;;;;;;;;;4.90;99.90;;;;;;5028196;28;19928;-78
2023/04/14 03:51:52;;;;;;;;;;;4.90;99.90;;;;;;5022298;28;20427;-78
2023/04/14 03:54:20;;;;;;;;;;;4.90;99.90;;;;;;5036605;28;19983;-78
2023/04/14 03:56:47;;;;;;;;;;;4.90;99.90;;;;;;5015784;28;19928;-78
2023/04/14 03:59:15;;;;;;;;;;;4.70;99.90;;;;;;5019952;28;19925;-78
2023/04/14 04:01:41;;;;;;;;;;;4.70;99.90;;;;;;5019399;28;19923;-78
2023/04/14 04:04:07;;;;;;;;;;;4.60;99.90;;;;;;5020666;28;19921;-78
2023/04/14 04:06:33;;;;;;;;;;;4.60;99.90;;;;;;5021714;28;20365;-78
2023/04/14 04:09:00;;;;;;;;;;;4.50;99.90;;;;;;5031693;28;19956;-78
2023/04/14 04:11:26;;;;;;;;;;;4.50;99.90;;;;;;5019029;28;19989;-78
2023/04/14 04:13:53;;;;;;;;;;;4.60;99.90;;;;;;5018672;28;19921;-78
2023/04/14 04:16:19;;;;;;;;;;;4.50;99.90;;;;;;4973319;28;19921;-79
2023/04/14 04:18:47;;;;;;;;;;;4.50;99.90;;;;;;5014436;28;19923;-78
2023/04/14 04:21:13;;;;;;;;;;;4.60;99.90;;;;;;5016537;28;20501;-78
2023/04/14 04:23:40;;;;;;;;;;;4.70;99.90;;;;;;5016991;28;19929;-78
2023/04/14 04:26:06;;;;;;;;;;;4.70;99.90;;;;;;5016715;28;20033;-78
2023/04/14 04:28:31;;;;;;;;;;;4.60;99.90;;;;;;5014785;28;20019;-78
2023/04/14 04:30:59;;;;;;;;;;;4.70;99.90;;;;;;5012626;28;19921;-78
2023/04/14 04:33:26;;;;;;;;;;;4.60;99.90;;;;;;5020208;28;20298;-78
2023/04/14 04:35:53;;;;;;;;;;;4.60;99.90;;;;;;5015010;28;19920;-78
2023/04/14 04:38:19;;;;;;;;;;;4.70;99.90;;;;;;5034065;28;19920;-78
2023/04/14 04:40:45;;;;;;;;;;;4.70;99.90;;;;;;5018666;28;20258;-77
2023/04/14 04:43:10;;;;;;;;;;;4.70;99.90;;;;;;5033831;28;19927;-78
2023/04/14 04:45:54;;;;;;;;;;;4.60;99.90;;;;;;5033988;28;19921;-78
2023/04/14 04:48:20;;;;;;;;;;;4.60;99.90;;;;;;5015902;28;19966;-78
2023/04/14 04:50:46;;;;;;;;;;;4.60;99.90;;;;;;5036636;28;19924;-78
2023/04/14 04:53:11;;;;;;;;;;;4.60;99.90;;;;;;5023149;28;19921;-78
2023/04/14 04:55:37;;;;;;;;;;;4.60;99.90;;;;;;5033658;28;19928;-78
2023/04/14 04:58:02;;;;;;;;;;;4.40;99.90;;;;;;4999518;28;19921;-78
2023/04/14 05:00:28;;;;;;;;;;;4.50;99.90;;;;;;5008948;28;20051;-78
2023/04/14 05:02:53;;;;;;;;;;;4.60;99.90;;;;;;4998744;28;19931;-78
2023/04/14 05:05:19;;;;;;;;;;;4.70;99.90;;;;;;5000590;28;19917;-78
2023/04/14 05:07:44;;;;;;;;;;;4.90;99.90;;;;;;5000673;28;19928;-79
2023/04/14 05:10:11;;;;;;;;;;;5.00;99.90;;;;;;5002330;28;19928;-78
2023/04/14 05:12:36;;;;;;;;;;;5.20;99.90;;;;;;5003419;28;19925;-79
2023/04/14 05:15:02;;;;;;;;;;;5.50;99.90;;;;;;5004038;28;20203;-78
2023/04/14 05:17:28;;;;;;;;;;;5.50;99.90;;;;;;5003588;28;19967;-79
2023/04/14 05:19:53;;;;;;;;;;;6.00;99.90;;;;;;4996083;28;19932;-79
2023/04/14 05:22:19;;;;;;;;;;;5.60;99.90;;;;;;5019297;28;19921;-79
2023/04/14 05:24:49;;;;;;;;;;;5.60;99.90;;;;;;5016864;28;20361;-79
2023/04/14 05:27:14;;;;;;;;;;;5.60;99.90;;;;;;5015211;28;19917;-78
2023/04/14 05:29:40;;;;;;;;;;;5.70;99.90;;;;;;5034920;28;19929;-78
2023/04/14 05:32:06;;;;;;;;;;;5.60;99.90;;;;;;5021023;28;20023;-78
2023/04/14 05:34:31;;;;;;;;;;;5.60;99.90;;;;;;5020164;28;19935;-78
2023/04/14 05:36:57;;;;;;;;;;;5.60;99.90;;;;;;5041062;28;19952;-78
2023/04/14 05:39:23;;;;;;;;;;;5.70;99.90;;;;;;5024370;28;19920;-78
2023/04/14 05:41:48;;;;;;;;;;;5.90;99.90;;;;;;5029936;28;19971;-78
2023/04/14 05:44:14;;;;;;;;;;;5.80;99.90;;;;;;5022603;28;19928;-78
2023/04/14 05:46:40;;;;;;;;;;;5.90;99.90;;;;;;5025328;28;19924;-78
2023/04/14 05:49:05;;;;;;;;;;;6.00;99.90;;;;;;5022818;28;19989;-78
2023/04/14 05:51:31;;;;;;;;;;;6.00;99.90;;;;;;5024920;28;19924;-78
2023/04/14 05:53:56;;;;;;;;;;;6.10;99.90;;;;;;5042088;28;19921;-78
2023/04/14 05:56:22;;;;;;;;;;;6.00;99.90;;;;;;5024757;28;20007;-78
2023/04/14 05:58:47;;;;;;;;;;;6.20;99.90;;;;;;5040223;28;19959;-78
2023/04/14 06:01:13;;;;;;;;;;;6.60;99.90;;;;;;5022758;28;20007;-77
2023/04/14 06:03:39;;;;;;;;;;;7.30;99.90;;;;;;5022722;28;20769;-78
2023/04/14 06:06:04;;;;;;;;;;;7.80;99.90;;;;;;5040957;28;19928;-78
2023/04/14 06:08:30;;;;;;;;;;;8.20;99.90;;;;;;5034311;28;19992;-77
2023/04/14 06:10:57;;;;;;;;;;;8.80;99.90;;;;;;5023493;28;19963;-78
2023/04/14 06:13:22;;;;;;;;;;;9.00;99.90;;;;;;5023150;28;20386;-78
2023/04/14 06:15:49;;;;;;;;;;;9.10;99.90;;;;;;5024489;28;19920;-78
2023/04/14 06:18:15;;;;;;;;;;;9.20;99.90;;;;;;5022138;28;20348;-78
2023/04/14 06:20:40;;;;;;;;;;;9.20;99.90;;;;;;5040948;28;19924;-77
2023/04/14 06:23:06;;;;;;;;;;;9.40;99.90;;;;;;5023277;28;20354;-78
2023/04/14 06:25:33;;;;;;;;;;;9.70;99.90;;;;;;5041179;28;20310;-78
2023/04/14 06:28:02;;;;;;;;;;;9.80;99.90;;;;;;5022292;28;19917;-78
2023/04/14 06:30:28;;;;;;;;;;;10.00;99.90;;;;;;5025888;28;19936;-79
2023/04/14 06:32:54;;;;;;;;;;;10.10;99.90;;;;;;5014579;28;19929;-80
2023/04/14 06:35:19;;;;;;;;;;;10.10;99.90;;;;;;5022119;28;19928;-77
2023/04/14 06:37:45;;;;;;;;;;;10.40;99.90;;;;;;5022554;28;19929;-78
2023/04/14 06:40:11;;;;;;;;;;;10.40;99.90;;;;;;5038623;28;19964;-77
2023/04/14 06:42:36;;;;;;;;;;;10.30;99.90;;;;;;5022316;28;19921;-79
2023/04/14 06:45:02;;;;;;;;;;;10.60;99.90;;;;;;5021738;28;19920;-78
2023/04/14 06:47:27;;;;;;;;;;;10.90;99.90;;;;;;5037334;28;19921;-78
2023/04/14 06:49:53;;;;;;;;;;;10.90;99.90;;;;;;5022547;28;19921;-78
2023/04/14 06:52:18;;;;;;;;;;;11.00;99.90;;;;;;5021678;28;19943;-78
2023/04/14 06:54:44;;;;;;;;;;;11.10;99.90;;;;;;5038628;28;20292;-79
2023/04/14 06:57:10;;;;;;;;;;;11.30;99.90;;;;;;5006047;28;19927;-78
2023/04/14 06:59:36;;;;;;;;;;;11.20;99.90;;;;;;5025586;28;19921;-79
2023/04/14 07:02:01;;;;;;;;;;;11.20;99.90;;;;;;5022732;28;20027;-78
2023/04/14 07:04:27;;;;;;;;;;;11.40;99.90;;;;;;5022829;28;19921;-78
2023/04/14 07:06:57;;;;;;;;;;;11.40;99.90;;;;;;5021890;28;19916;-78
2023/04/14 07:09:23;;;;;;;;;;;11.70;99.90;;;;;;5005858;28;19927;-80
2023/04/14 07:11:49;;;;;;;;;;;11.80;99.90;;;;;;5020324;28;20393;-78
2023/04/14 07:14:14;;;;;;;;;;;11.60;99.90;;;;;;5018809;28;20004;-78
2023/04/14 07:16:40;;;;;;;;;;;11.70;99.90;;;;;;5019160;28;19927;-78
2023/04/14 07:19:06;;;;;;;;;;;11.70;99.90;;;;;;5021187;28;20019;-78
2023/04/14 07:21:31;;;;;;;;;;;12.00;99.90;;;;;;5023906;28;19983;-78
2023/04/14 07:23:57;;;;;;;;;;;12.00;99.90;;;;;;5007764;28;19971;-78
2023/04/14 07:26:22;;;;;;;;;;;12.40;99.90;;;;;;5034749;28;19987;-77
2023/04/14 07:28:48;;;;;;;;;;;12.30;99.90;;;;;;5019146;28;19921;-78
2023/04/14 07:31:13;;;;;;;;;;;12.30;99.90;;;;;;5030295;28;19978;-78
2023/04/14 07:33:39;;;;;;;;;;;12.50;99.90;;;;;;5039839;28;19929;-78
2023/04/14 07:36:05;;;;;;;;;;;12.30;99.90;;;;;;5022103;28;19928;-79
2023/04/14 07:38:31;;;;;;;;;;;12.60;99.90;;;;;;5038118;28;20420;-78
2023/04/14 07:40:57;;;;;;;;;;;12.80;99.90;;;;;;5021269;28;19921;-78
2023/04/14 07:43:23;;;;;;;;;;;12.50;99.90;;;;;;5024264;28;20057;-77
2023/04/14 07:45:48;;;;;;;;;;;12.70;99.90;;;;;;5022880;28;19928;-77
2023/04/14 07:48:14;;;;;;;;;;;13.00;99.90;;;;;;5018400;28;19920;-78
2023/04/14 07:50:39;;;;;;;;;;;12.90;99.90;;;;;;5020424;28;19929;-77
2023/04/14 07:53:05;;;;;;;;;;;13.30;99.90;;;;;;5036803;28;19951;-78
2023/04/14 07:55:31;;;;;;;;;;;13.30;99.90;;;;;;5019563;28;19920;-78
2023/04/14 07:57:56;;;;;;;;;;;13.70;99.90;;;;;;5021234;28;20381;-78
2023/04/14 08:00:22;;;;;;;;;;;13.90;99.90;;;;;;5029551;28;19928;-77
2023/04/14 08:02:48;;;;;;;;;;;13.90;99.90;;;;;;5019748;28;20550;-78
2023/04/14 08:05:13;;;;;;;;;;;13.70;99.90;;;;;;5028247;28;20007;-78
2023/04/14 08:07:39;;;;;;;;;;;13.80;99.90;;;;;;5010238;28;19954;-78
2023/04/14 08:10:04;;;;;;;;;;;13.60;99.90;;;;;;5028160;28;20003;-78
2023/04/14 08:12:30;;;;;;;;;;;13.80;99.90;;;;;;5017902;28;20366;-78
2023/04/14 08:14:56;;;;;;;;;;;14.20;99.90;;;;;;5036180;28;20783;-77
2023/04/14 08:17:22;;;;;;;;;;;14.00;99.90;;;;;;5020740;28;20525;-78
2023/04/14 08:19:47;;;;;;;;;;;14.40;99.90;;;;;;5036674;28;20897;-79
2023/04/14 08:22:13;;;;;;;;;;;14.30;99.90;;;;;;5036487;28;19952;-79
2023/04/14 08:24:38;;;;;;;;;;;14.70;99.90;;;;;;5031601;28;19969;-78
2023/04/14 08:27:04;;;;;;;;;;;14.50;99.90;;;;;;5034665;28;19924;-77
2023/04/14 08:29:29;;;;;;;;;;;14.70;99.90;;;;;;5018443;28;20019;-77
2023/04/14 08:31:55;;;;;;;;;;;14.80;99.90;;;;;;5017597;28;20011;-76
2023/04/14 08:34:21;;;;;;;;;;;15.00;99.90;;;;;;5014665;28;20024;-78
2023/04/14 08:36:46;;;;;;;;;;;14.10;99.90;;;;;;5006592;28;20201;-78
2023/04/14 08:39:12;;;;;;;;;;;14.00;99.90;;;;;;5004649;28;19928;-78
2023/04/14 08:41:38;;;;;;;;;;;13.20;99.90;;;;;;5003324;28;19920;-79
2023/04/14 08:44:04;;;;;;;;;;;13.90;99.90;;;;;;5012065;28;19975;-78
2023/04/14 08:46:30;;;;;;;;;;;13.90;99.90;;;;;;5008225;28;19971;-78
2023/04/14 08:49:06;;;;;;;;;;;13.50;99.90;;;;;;5008283;28;20404;-78
2023/04/14 08:51:38;;;;;;;;;;;14.20;99.90;;;;;;5010898;28;19917;-78
2023/04/14 08:54:10;;;;;;;;;;;13.50;99.90;;;;;;5020846;28;21130;-78
2023/04/14 08:56:37;;;;;;;;;;;14.10;99.90;;;;;;5000342;28;20008;-78
2023/04/14 08:59:04;;;;;;;;;;;13.30;99.90;;;;;;4987734;28;19921;-78
2023/04/14 09:01:32;;;;;;;;;;;13.30;99.90;;;;;;5011176;28;20129;-78
2023/04/14 09:03:57;;;;;;;;;;;13.10;99.90;;;;;;5008074;28;20568;-78
2023/04/14 09:06:23;;;;;;;;;;;12.80;99.90;;;;;;5026550;28;19920;-78
2023/04/14 09:08:49;;;;;;;;;;;13.20;99.90;;;;;;5022339;28;20019;-77
2023/04/14 09:11:14;;;;;;;;;;;13.60;99.90;;;;;;5005319;28;19925;-78
2023/04/14 09:13:40;;;;;;;;;;;14.10;99.90;;;;;;5023165;28;19968;-78
2023/04/14 09:16:07;;;;;;;;;;;13.30;99.90;;;;;;5018692;28;19929;-78
2023/04/14 09:18:32;;;;;;;;;;;14.20;99.90;;;;;;5005533;28;19928;-78
2023/04/14 09:20:58;;;;;;;;;;;14.10;99.90;;;;;;5008450;28;19928;-78
2023/04/14 09:23:24;;;;;;;;;;;14.20;99.90;;;;;;5007568;28;19924;-78
2023/04/14 09:25:50;;;;;;;;;;;14.40;99.90;;;;;;5006171;28;19921;-78
2023/04/14 09:28:15;;;;;;;;;;;14.40;99.90;;;;;;5004199;28;19928;-78
2023/04/14 09:30:42;;;;;;;;;;;13.80;99.90;;;;;;5008476;28;19917;-78
2023/04/14 09:33:16;;;;;;;;;;;14.30;99.90;;;;;;5024939;28;20015;-78
2023/04/14 09:35:44;;;;;;;;;;;15.00;99.90;;;;;;5005611;28;19920;-78
2023/04/14 09:38:10;;;;;;;;;;;15.10;99.90;;;;;;5006295;28;20640;-78
2023/04/14 09:40:37;;;;;;;;;;;15.80;99.90;;;;;;5006041;28;19929;-78
2023/04/14 09:43:03;;;;;;;;;;;15.80;99.90;;;;;;5023674;28;20393;-77
2023/04/14 09:45:44;;;;;;;;;;;15.40;99.90;;;;;;5005225;28;19921;-78
2023/04/14 09:48:11;;;;;;;;;;;15.00;99.90;;;;;;5024282;28;19921;-78
2023/04/14 09:50:59;;;;;;;;;;;15.70;99.90;;;;;;5012727;28;19921;-78
2023/04/14 09:53:28;;;;;;;;;;;15.80;99.90;;;;;;5014640;28;20035;-79
2023/04/14 09:55:54;;;;;;;;;;;15.70;99.90;;;;;;5027772;28;20502;-78
2023/04/14 09:58:23;;;;;;;;;;;16.30;99.90;;;;;;5018958;28;19921;-78
2023/04/14 10:00:50;;;;;;;;;;;15.30;99.90;;;;;;5029776;28;22558;-78
2023/04/14 10:03:16;;;;;;;;;;;15.00;99.90;;;;;;5019569;28;19921;-78
2023/04/14 10:05:46;;;;;;;;;;;15.70;99.90;;;;;;5016540;28;19921;-75
2023/04/14 10:08:12;;;;;;;;;;;16.20;99.90;;;;;;5018340;28;19942;-79
2023/04/14 10:10:37;;;;;;;;;;;16.30;99.90;;;;;;5018694;28;20358;-78
2023/04/14 10:13:03;;;;;;;;;;;15.40;99.90;;;;;;5019743;28;19920;-79
2023/04/14 10:15:29;;;;;;;;;;;15.70;99.90;;;;;;5018361;28;20007;-78
2023/04/14 10:17:55;;;;;;;;;;;15.80;99.90;;;;;;5017640;28;19928;-78
2023/04/14 10:20:21;;;;;;;;;;;14.80;99.90;;;;;;5039412;28;19959;-78
2023/04/14 10:22:47;;;;;;;;;;;14.60;99.90;;;;;;5037137;28;19959;-78
2023/04/14 10:25:12;;;;;;;;;;;15.90;99.90;;;;;;5038476;28;20424;-78
2023/04/14 10:27:38;;;;;;;;;;;15.80;99.90;;;;;;5021137;28;19926;-78
2023/04/14 10:30:04;;;;;;;;;;;15.90;99.90;;;;;;5025192;28;20336;-78
2023/04/14 10:32:32;;;;;;;;;;;16.40;99.90;;;;;;5022726;28;19975;-78
2023/04/14 10:34:58;;;;;;;;;;;16.70;99.90;;;;;;5022502;28;20051;-78
2023/04/14 10:37:24;;;;;;;;;;;16.70;99.90;;;;;;5020844;28;21723;-79
2023/04/14 10:39:56;;;;;;;;;;;15.50;99.90;;;;;;5021788;28;19920;-78
2023/04/14 10:42:22;;;;;;;;;;;16.00;99.90;;;;;;5019843;28;19921;-78
2023/04/14 10:45:04;;;;;;;;;;;16.40;99.90;;;;;;5024347;28;20596;-78
2023/04/14 10:47:30;;;;;;;;;;;16.90;99.90;;;;;;5038674;28;20372;-78
2023/04/14 10:49:57;;;;;;;;;;;16.80;99.90;;;;;;5041976;28;19921;-78
2023/04/14 10:52:24;;;;;;;;;;;16.90;99.90;;;;;;5026766;28;19952;-78
2023/04/14 10:54:53;;;;;;;;;;;17.20;99.90;;;;;;5024147;28;19928;-78
2023/04/14 10:57:22;;;;;;;;;;;17.00;99.90;;;;;;5023877;28;19927;-77
2023/04/14 10:59:52;;;;;;;;;;;15.70;99.90;;;;;;5023231;28;20328;-78
2023/04/14 11:02:27;;;;;;;;;;;16.90;99.90;;;;;;5022364;28;19928;-78
2023/04/14 11:05:11;;;;;;;;;;;17.00;99.90;;;;;;5036372;28;19921;-78
2023/04/14 11:07:39;;;;;;;;;;;17.40;99.90;;;;;;5022159;28;19983;-78
2023/04/14 11:10:20;;;;;;;;;;;17.70;99.90;;;;;;5025759;28;19925;-78
2023/04/14 11:12:46;;;;;;;;;;;17.80;99.90;;;;;;5033746;28;19920;-78
2023/04/14 11:15:12;;;;;;;;;;;18.10;99.90;;;;;;5022433;28;19928;-78
2023/04/14 11:17:38;;;;;;;;;;;18.00;99.90;;;;;;5018695;28;19921;-78
2023/04/14 11:20:17;;;;;;;;;;;18.10;99.90;;;;;;5026930;28;19925;-78
2023/04/14 11:22:46;;;;;;;;;;;18.50;99.90;;;;;;5039327;28;19963;-78
2023/04/14 11:25:13;;;;;;;;;;;16.40;99.90;;;;;;5027461;28;19921;-78
2023/04/14 11:27:38;;;;;;;;;;;15.90;99.90;;;;;;5035207;28;20305;-77
2023/04/14 11:30:05;;;;;;;;;;;17.30;99.90;;;;;;5036306;28;19940;-78
2023/04/14 11:32:43;;;;;;;;;;;18.00;99.90;;;;;;5003293;28;19920;-77
2023/04/14 11:35:09;;;;;;;;;;;17.40;99.90;;;;;;5034558;28;20553;-78
2023/04/14 11:37:35;;;;;;;;;;;17.90;99.90;;;;;;5020023;28;19921;-79
2023/04/14 11:40:01;;;;;;;;;;;16.70;98.60;;;;;;5037786;28;20266;-78
2023/04/14 11:42:27;;;;;;;;;;;16.60;99.90;;;;;;5024734;28;19966;-78
2023/04/14 11:44:58;;;;;;;;;;;17.10;99.90;;;;;;5037748;28;20004;-78
2023/04/14 11:47:24;;;;;;;;;;;16.80;99.90;;;;;;5019974;28;19920;-78
2023/04/14 11:49:50;;;;;;;;;;;17.10;99.90;;;;;;5034972;28;19929;-80
2023/04/14 11:52:18;;;;;;;;;;;16.00;99.90;;;;;;5020493;28;19924;-79
2023/04/14 11:54:43;;;;;;;;;;;16.50;99.90;;;;;;5019014;28;20377;-79
2023/04/14 11:57:13;;;;;;;;;;;15.40;99.20;;;;;;5024741;28;19921;-79
2023/04/14 11:59:42;;;;;;;;;;;16.10;99.90;;;;;;5029400;28;20285;-78
2023/04/14 12:02:14;;;;;;;;;;;15.60;99.90;;;;;;5034107;28;19971;-77
2023/04/14 12:04:39;;;;;;;;;;;16.60;99.90;;;;;;5019398;28;19943;-78
2023/04/14 12:07:09;;;;;;;;;;;16.70;99.90;;;;;;5013533;28;20366;-78
2023/04/14 12:09:38;;;;;;;;;;;16.40;99.90;;;;;;5017276;28;19929;-78
2023/04/14 12:12:08;;;;;;;;;;;17.20;99.90;;;;;;5018279;28;19929;-78
2023/04/14 12:14:35;;;;;;;;;;;16.70;99.90;;;;;;5020525;28;19948;-78
2023/04/14 12:17:00;;;;;;;;;;;16.60;99.90;;;;;;5016546;28;19927;-79
2023/04/14 12:19:26;;;;;;;;;;;17.70;99.90;;;;;;5039841;28;20435;-79
2023/04/14 12:21:52;;;;;;;;;;;16.60;99.90;;;;;;5033104;28;19931;-80
2023/04/14 12:24:17;;;;;;;;;;;17.90;99.90;;;;;;5017596;28;20293;-79
2023/04/14 12:26:43;;;;;;;;;;;18.00;99.90;;;;;;5014844;28;19920;-79
2023/04/14 12:29:11;;;;;;;;;;;18.40;99.90;;;;;;5034805;28;19928;-79
2023/04/14 12:31:40;;;;;;;;;;;17.40;95.30;;;;;;5030534;28;20453;-79
2023/04/14 12:34:06;;;;;;;;;;;17.40;99.90;;;;;;5034856;28;20262;-79
2023/04/14 12:36:31;;;;;;;;;;;18.10;99.90;;;;;;5017460;28;19927;-80
2023/04/14 12:39:03;;;;;;;;;;;18.20;99.90;;;;;;5034129;28;19932;-78
2023/04/14 12:41:29;;;;;;;;;;;17.70;98.40;;;;;;5020707;28;20011;-80
2023/04/14 12:43:54;;;;;;;;;;;17.00;96.10;;;;;;5014657;28;20030;-79
2023/04/14 12:46:25;;;;;;;;;;;16.80;99.70;;;;;;5034529;28;19917;-78
2023/04/14 12:48:50;;;;;;;;;;;16.90;99.90;;;;;;5011790;28;19917;-80
2023/04/14 12:51:17;;;;;;;;;;;17.30;99.90;;;;;;5010103;28;19928;-79
2023/04/14 12:53:43;;;;;;;;;;;17.10;99.90;;;;;;5007037;28;19928;-78
2023/04/14 12:56:09;;;;;;;;;;;18.10;99.90;;;;;;5014022;28;20600;-79
2023/04/14 12:58:36;;;;;;;;;;;17.70;99.90;;;;;;5010311;28;19975;-79
2023/04/14 13:01:11;;;;;;;;;;;18.40;99.90;;;;;;5001115;28;19921;-78
2023/04/14 13:03:37;;;;;;;;;;;18.40;99.90;;;;;;5001985;28;20040;-79
2023/04/14 13:06:03;;;;;;;;;;;17.80;97.20;;;;;;5005244;28;19951;-78
2023/04/14 13:08:29;;;;;;;;;;;17.90;96.50;;;;;;5000723;28;19921;-79
2023/04/14 13:10:55;;;;;;;;;;;16.20;92.10;;;;;;4985912;28;19936;-79
2023/04/14 13:13:20;;;;;;;;;;;16.00;99.40;;;;;;5008724;28;19917;-78
2023/04/14 13:15:46;;;;;;;;;;;17.20;99.90;;;;;;5032731;28;19927;-78
2023/04/14 13:18:11;;;;;;;;;;;17.30;99.90;;;;;;5018062;28;19921;-79
2023/04/14 13:20:37;;;;;;;;;;;17.30;99.90;;;;;;5021600;28;19928;-78
2023/04/14 13:23:02;;;;;;;;;;;18.10;99.90;;;;;;5022290;28;20055;-79
2023/04/14 13:25:28;;;;;;;;;;;17.90;99.90;;;;;;5019012;28;19933;-78
2023/04/14 13:27:53;;;;;;;;;;;18.20;97.40;;;;;;5017418;28;20325;-79
2023/04/14 13:30:19;;;;;;;;;;;18.30;99.60;;;;;;5019048;28;19920;-78
2023/04/14 13:32:45;;;;;;;;;;;18.80;99.60;;;;;;5018270;28;19920;-79
2023/04/14 13:35:10;;;;;;;;;;;18.60;99.70;;;;;;5018130;28;20338;-79
2023/04/14 13:37:37;;;;;;;;;;;19.10;98.70;;;;;;5017471;28;19921;-79
2023/04/14 13:40:03;;;;;;;;;;;19.40;99.50;;;;;;5017320;28;19921;-79
2023/04/14 13:42:28;;;;;;;;;;;18.40;92.10;;;;;;5018373;28;19940;-79
2023/04/14 13:44:54;;;;;;;;;;;17.80;96.70;;;;;;5018682;28;20002;-76
2023/04/14 13:47:19;;;;;;;;;;;18.10;96.60;;;;;;5017086;28;19924;-76
2023/04/14 13:49:45;;;;;;;;;;;18.40;99.90;;;;;;5018815;28;19979;-78
2023/04/14 13:52:10;;;;;;;;;;;18.50;95.70;;;;;;5016503;28;19928;-78
2023/04/14 13:54:36;;;;;;;;;;;18.50;96.70;;;;;;5003887;28;19921;-78
2023/04/14 13:57:02;;;;;;;;;;;18.60;97.20;;;;;;5018234;28;20285;-81
2023/04/14 13:59:27;;;;;;;;;;;18.00;98.40;;;;;;5036133;28;19921;-80
2023/04/14 14:01:53;;;;;;;;;;;18.30;95.40;;;;;;5042067;28;19921;-79
2023/04/14 14:04:18;;;;;;;;;;;17.60;92.70;;;;;;5023401;28;19921;-78
2023/04/14 14:06:44;;;;;;;;;;;16.80;95.40;;;;;;5037632;28;19928;-78
2023/04/14 14:09:10;;;;;;;;;;;17.20;97.90;;;;;;5039512;28;19955;-78
2023/04/14 14:11:35;;;;;;;;;;;17.00;94.40;;;;;;5007594;28;20278;-78
2023/04/14 14:14:01;;;;;;;;;;;16.50;93.30;;;;;;5013594;28;19924;-79
2023/04/14 14:16:27;;;;;;;;;;;15.90;94.10;;;;;;5022755;28;19928;-78
2023/04/14 14:18:52;;;;;;;;;;;16.00;95.70;;;;;;4989066;28;21943;-78
2023/04/14 14:21:18;;;;;;;;;;;15.80;94.30;;;;;;5038949;28;19921;-78
2023/04/14 14:23:43;;;;;;;;;;;15.80;93.20;;;;;;5014093;28;19932;-78